Time;durP1;ratioP1;P1;durP2;ratioP2;P2;SDS_P1;SDS_P2;PMS_P1;PMS_P2;Temp;Humidity;BMP_temperature;BMP_pressure;BME280_temperature;BME280_humidity;BME280_pressure;Samples;Min_cycle;Max_cycle;Signal;HPM_P1;HPM_P2
2022/08/15 00:02:22;;;;;;;9.68;7.15;;;21.40;99.90;;;;;;5055188;28;20303;-86
2022/08/15 00:05:10;;;;;;;7.97;7.15;;;21.40;99.90;;;;;;5055097;28;20221;-86
2022/08/15 00:07:39;;;;;;;6.63;5.93;;;21.40;99.90;;;;;;5054758;28;20244;-86
2022/08/15 00:10:17;;;;;;;7.35;6.63;;;21.40;99.90;;;;;;5054985;28;20201;-86
2022/08/15 00:13:12;;;;;;;9.55;6.07;;;21.30;99.90;;;;;;5054791;28;20202;-86
2022/08/15 00:15:45;;;;;;;7.32;6.63;;;21.30;99.90;;;;;;5054847;28;20209;-86
2022/08/15 00:18:15;;;;;;;7.18;6.57;;;21.30;99.90;;;;;;5054887;28;20208;-86
2022/08/15 00:20:48;;;;;;;6.43;5.93;;;21.30;99.90;;;;;;5054444;28;20226;-86
2022/08/15 00:23:22;;;;;;;12.10;7.78;;;21.30;99.90;;;;;;5054723;28;20201;-86
2022/08/15 00:25:57;;;;;;;6.20;5.70;;;21.20;99.90;;;;;;5054686;28;20285;-86
2022/08/15 00:28:47;;;;;;;6.72;6.13;;;21.20;99.90;;;;;;5054875;28;20201;-86
2022/08/15 00:31:24;;;;;;;7.55;6.82;;;21.20;99.90;;;;;;5054616;28;20233;-86
2022/08/15 00:34:10;;;;;;;7.72;6.93;;;21.20;99.90;;;;;;5054687;28;20216;-86
2022/08/15 00:36:59;;;;;;;7.13;6.53;;;21.20;99.90;;;;;;5054149;28;20315;-87
2022/08/15 00:39:29;;;;;;;7.45;6.70;;;21.10;99.90;;;;;;5054201;28;20226;-87
2022/08/15 00:42:06;;;;;;;7.25;6.53;;;21.10;99.90;;;;;;5054626;28;20255;-87
2022/08/15 00:44:45;;;;;;;7.75;7.07;;;21.10;99.90;;;;;;5054132;28;20213;-86
2022/08/15 00:47:29;;;;;;;7.00;6.40;;;21.10;99.90;;;;;;5053881;28;20221;-86
2022/08/15 00:50:08;;;;;;;9.35;7.30;;;21.10;99.90;;;;;;5053191;28;20281;-86
2022/08/15 00:52:56;;;;;;;7.50;6.85;;;21.10;99.90;;;;;;5054023;28;20206;-86
2022/08/15 00:55:27;;;;;;;15.65;7.55;;;21.10;99.90;;;;;;5054414;28;20262;-86
2022/08/15 00:57:57;;;;;;;7.43;6.80;;;21.10;99.90;;;;;;5054192;28;20232;-86
2022/08/15 01:00:35;;;;;;;6.72;6.22;;;21.10;99.90;;;;;;5053311;28;20321;-86
2022/08/15 01:03:14;;;;;;;6.93;5.97;;;21.10;99.90;;;;;;5054038;28;20206;-87
2022/08/15 01:05:45;;;;;;;11.02;7.40;;;21.10;99.90;;;;;;5054003;28;20213;-87
2022/08/15 01:08:17;;;;;;;7.35;6.65;;;21.00;99.90;;;;;;5054505;28;20208;-86
2022/08/15 01:10:48;;;;;;;7.82;6.60;;;21.00;99.90;;;;;;5054086;28;20257;-86
2022/08/15 01:13:27;;;;;;;6.88;6.28;;;20.90;99.90;;;;;;5053824;28;20293;-86
2022/08/15 01:16:18;;;;;;;7.78;6.97;;;20.90;99.90;;;;;;5053753;28;20201;-86
2022/08/15 01:19:05;;;;;;;6.25;5.70;;;20.80;99.90;;;;;;5053727;28;20209;-85
2022/08/15 01:22:03;;;;;;;12.55;7.07;;;20.70;99.90;;;;;;5053591;28;20292;-86
2022/08/15 01:24:47;;;;;;;7.00;6.40;;;20.60;99.90;;;;;;5054062;28;20217;-86
2022/08/15 01:27:41;;;;;;;6.70;6.20;;;20.60;99.90;;;;;;5053490;28;20216;-86
2022/08/15 01:30:12;;;;;;;6.97;6.38;;;20.50;99.90;;;;;;5053354;28;20201;-86
2022/08/15 01:33:01;;;;;;;9.27;7.22;;;20.60;99.90;;;;;;5053276;28;20201;-86
2022/08/15 01:35:29;;;;;;;8.35;7.32;;;20.50;99.90;;;;;;5053690;28;20232;-86
2022/08/15 01:37:59;;;;;;;8.13;7.43;;;20.50;99.90;;;;;;5053470;28;20240;-86
2022/08/15 01:40:43;;;;;;;7.78;7.07;;;20.50;99.90;;;;;;5052745;28;20221;-85
2022/08/15 01:43:25;;;;;;;7.10;6.50;;;20.50;99.90;;;;;;5053179;28;20221;-86
2022/08/15 01:45:58;;;;;;;6.93;6.25;;;20.50;99.90;;;;;;5053535;28;20210;-86
2022/08/15 01:48:33;;;;;;;10.02;6.97;;;20.50;99.90;;;;;;5052685;28;20274;-86
2022/08/15 01:51:07;;;;;;;6.45;5.95;;;20.50;99.90;;;;;;5053013;28;20228;-86
2022/08/15 01:53:43;;;;;;;6.30;5.85;;;20.60;99.90;;;;;;5053122;28;20232;-86
2022/08/15 01:56:19;;;;;;;6.82;6.25;;;20.60;99.90;;;;;;5053220;28;20253;-86
2022/08/15 01:59:05;;;;;;;7.05;6.40;;;20.60;99.90;;;;;;5053193;28;20205;-86
2022/08/15 02:01:44;;;;;;;7.18;6.60;;;20.70;99.90;;;;;;5052500;28;20233;-86
2022/08/15 02:04:25;;;;;;;6.28;5.78;;;20.70;99.90;;;;;;5053216;28;20209;-85
2022/08/15 02:06:53;;;;;;;9.60;6.55;;;20.70;99.90;;;;;;5052944;28;20287;-86
2022/08/15 02:09:24;;;;;;;8.40;7.47;;;20.80;99.90;;;;;;5052579;28;20256;-87
2022/08/15 02:12:18;;;;;;;7.65;7.05;;;20.80;99.90;;;;;;5052837;28;20228;-86
2022/08/15 02:15:12;;;;;;;7.25;6.65;;;20.80;99.90;;;;;;5052961;28;20231;-87
2022/08/15 02:17:41;;;;;;;6.78;6.13;;;20.80;99.90;;;;;;5052943;28;20228;-86
2022/08/15 02:20:11;;;;;;;6.78;6.18;;;20.80;99.90;;;;;;5052433;28;20245;-86
2022/08/15 02:22:52;;;;;;;6.68;6.07;;;20.80;99.90;;;;;;5052780;28;20201;-86
2022/08/15 02:25:21;;;;;;;6.13;5.63;;;20.80;99.90;;;;;;5052994;28;20259;-86
2022/08/15 02:27:53;;;;;;;6.35;5.75;;;20.70;99.90;;;;;;5052773;28;20288;-86
2022/08/15 02:30:24;;;;;;;7.43;6.68;;;20.80;99.90;;;;;;5052160;28;20286;-85
2022/08/15 02:32:59;;;;;;;6.78;6.18;;;20.70;99.90;;;;;;5053069;28;20206;-85
2022/08/15 02:35:28;;;;;;;6.43;5.93;;;20.80;99.90;;;;;;5053076;28;20232;-85
2022/08/15 02:37:58;;;;;;;7.57;6.68;;;20.70;99.90;;;;;;5053026;28;20208;-86
2022/08/15 02:40:28;;;;;;;7.70;6.93;;;20.70;99.90;;;;;;5052241;28;20222;-86
2022/08/15 02:43:18;;;;;;;7.07;6.38;;;20.70;99.90;;;;;;5052567;28;20218;-85
2022/08/15 02:45:48;;;;;;;6.57;6.00;;;20.70;99.90;;;;;;5053073;28;20213;-85
2022/08/15 02:48:36;;;;;;;7.25;6.40;;;20.70;99.90;;;;;;5052294;28;20208;-86
2022/08/15 02:51:08;;;;;;;7.78;6.97;;;20.70;99.90;;;;;;5052251;28;20252;-86
2022/08/15 02:53:43;;;;;;;6.43;5.88;;;20.60;99.90;;;;;;5052450;28;20229;-85
2022/08/15 02:56:16;;;;;;;8.10;6.60;;;20.60;99.90;;;;;;5052424;28;20205;-85
2022/08/15 02:58:47;;;;;;;8.25;6.88;;;20.50;99.90;;;;;;5052454;28;20238;-85
2022/08/15 03:01:19;;;;;;;6.68;6.15;;;20.50;99.90;;;;;;5052050;28;20225;-85
2022/08/15 03:03:53;;;;;;;6.85;6.25;;;20.40;99.90;;;;;;5052767;28;20304;-86
2022/08/15 03:06:30;;;;;;;6.30;5.80;;;20.40;99.90;;;;;;5052340;28;20224;-86
2022/08/15 03:09:03;;;;;;;6.47;5.88;;;20.40;99.90;;;;;;5052026;28;20240;-86
2022/08/15 03:11:33;;;;;;;6.70;6.10;;;20.40;99.90;;;;;;5052287;28;20279;-85
2022/08/15 03:14:23;;;;;;;7.40;6.63;;;20.40;99.90;;;;;;5055779;28;20225;-85
2022/08/15 03:17:02;;;;;;;8.15;6.80;;;20.40;99.90;;;;;;5056147;28;20210;-85
2022/08/15 03:19:35;;;;;;;8.68;6.82;;;20.40;99.90;;;;;;5056063;28;20240;-85
2022/08/15 03:22:07;;;;;;;6.65;6.13;;;20.40;99.90;;;;;;5065703;28;20226;-87
2022/08/15 03:24:36;;;;;;;7.20;6.15;;;20.40;99.90;;;;;;5073334;28;20274;-84
2022/08/15 03:27:05;;;;;;;7.47;6.88;;;20.40;99.90;;;;;;5060236;28;20232;-85
2022/08/15 03:29:36;;;;;;;8.07;7.30;;;20.30;99.90;;;;;;5055897;28;20244;-85
2022/08/15 03:32:20;;;;;;;7.25;6.65;;;20.30;99.90;;;;;;5055436;28;20225;-85
2022/08/15 03:35:02;;;;;;;6.97;6.32;;;20.30;99.90;;;;;;5055533;28;20214;-86
2022/08/15 03:37:30;;;;;;;9.32;7.55;;;20.30;99.90;;;;;;5055478;28;20290;-86
2022/08/15 03:40:12;;;;;;;6.97;6.28;;;20.30;99.90;;;;;;5055437;28;20279;-86
2022/08/15 03:42:52;;;;;;;8.38;7.20;;;20.30;99.90;;;;;;5055350;28;20287;-85
2022/08/15 03:45:34;;;;;;;7.32;6.60;;;20.20;99.90;;;;;;5055213;28;20212;-85
2022/08/15 03:48:09;;;;;;;6.80;6.25;;;20.20;99.90;;;;;;5054927;28;20223;-85
2022/08/15 03:50:52;;;;;;;8.00;7.20;;;20.20;99.90;;;;;;5055124;28;20229;-85
2022/08/15 03:53:28;;;;;;;6.78;6.15;;;20.20;99.90;;;;;;5055451;28;20205;-86
2022/08/15 03:55:58;;;;;;;7.45;6.80;;;20.20;99.90;;;;;;5055339;28;20209;-86
2022/08/15 03:58:29;;;;;;;7.20;6.10;;;20.10;99.90;;;;;;5055322;28;20208;-86
2022/08/15 04:01:01;;;;;;;7.40;6.70;;;20.10;99.90;;;;;;5055011;28;20225;-86
2022/08/15 04:03:31;;;;;;;8.88;7.63;;;20.10;99.90;;;;;;5054626;28;20261;-86
2022/08/15 04:06:06;;;;;;;7.72;7.03;;;20.10;99.90;;;;;;5054981;28;20281;-86
2022/08/15 04:08:42;;;;;;;7.05;6.45;;;20.10;99.90;;;;;;5054803;28;20202;-86
2022/08/15 04:11:31;;;;;;;7.22;6.63;;;20.10;99.90;;;;;;5054955;28;20228;-86
2022/08/15 04:14:06;;;;;;;7.70;7.00;;;20.10;99.90;;;;;;5054874;28;20210;-85
2022/08/15 04:16:59;;;;;;;7.53;6.85;;;20.00;99.90;;;;;;5054876;28;20205;-87
2022/08/15 04:19:38;;;;;;;7.38;6.78;;;20.00;99.90;;;;;;5054538;28;20259;-85
2022/08/15 04:22:16;;;;;;;7.60;7.00;;;20.00;99.90;;;;;;5055018;28;20316;-86
2022/08/15 04:25:09;;;;;;;7.80;7.13;;;20.00;99.90;;;;;;5053560;28;20214;-86
2022/08/15 04:27:46;;;;;;;9.00;8.20;;;20.00;99.90;;;;;;5054629;28;20209;-86
2022/08/15 04:30:22;;;;;;;6.13;5.63;;;20.00;99.90;;;;;;5054233;28;20209;-86
2022/08/15 04:32:54;;;;;;;8.18;7.32;;;20.00;99.90;;;;;;5054425;28;20212;-86
2022/08/15 04:35:28;;;;;;;7.28;6.65;;;20.00;99.90;;;;;;5055112;28;20220;-86
2022/08/15 04:37:58;;;;;;;7.72;7.03;;;20.00;99.90;;;;;;5054481;28;20202;-86
2022/08/15 04:40:29;;;;;;;7.03;6.43;;;20.00;99.90;;;;;;5054150;28;20282;-86
2022/08/15 04:43:20;;;;;;;7.18;6.57;;;20.00;99.90;;;;;;5054364;28;20232;-86
2022/08/15 04:45:49;;;;;;;8.30;7.45;;;20.10;99.90;;;;;;5054418;28;20218;-86
2022/08/15 04:48:21;;;;;;;7.55;6.88;;;20.10;99.90;;;;;;5054739;28;20202;-86
2022/08/15 04:50:51;;;;;;;7.45;6.75;;;20.10;99.90;;;;;;5054110;28;20230;-85
2022/08/15 04:53:21;;;;;;;8.35;7.10;;;20.10;99.90;;;;;;5053838;28;20210;-86
2022/08/15 04:55:59;;;;;;;7.65;6.85;;;20.10;99.90;;;;;;5054456;28;20227;-86
2022/08/15 04:58:31;;;;;;;7.40;6.80;;;20.20;99.90;;;;;;5054309;28;20256;-86
2022/08/15 05:01:20;;;;;;;6.70;6.13;;;20.20;99.90;;;;;;5053565;28;20232;-86
2022/08/15 05:03:51;;;;;;;7.70;7.10;;;20.20;99.90;;;;;;5054004;28;20214;-86
2022/08/15 05:06:23;;;;;;;8.43;7.38;;;20.20;99.90;;;;;;5053765;28;20206;-86
2022/08/15 05:08:58;;;;;;;6.85;6.35;;;20.20;99.90;;;;;;5053633;28;20208;-86
2022/08/15 05:11:26;;;;;;;8.90;7.97;;;20.30;99.90;;;;;;5054128;28;20304;-86
2022/08/15 05:14:14;;;;;;;11.25;8.63;;;20.30;99.90;;;;;;5053839;28;20206;-86
2022/08/15 05:17:03;;;;;;;9.77;8.23;;;20.40;99.90;;;;;;5054082;28;20206;-86
2022/08/15 05:19:33;;;;;;;7.10;6.55;;;20.40;99.90;;;;;;5053383;28;20311;-86
2022/08/15 05:22:04;;;;;;;10.30;7.75;;;20.40;99.90;;;;;;5053324;28;20253;-86
2022/08/15 05:24:32;;;;;;;8.65;7.78;;;20.40;99.90;;;;;;5053475;28;20271;-86
2022/08/15 05:27:01;;;;;;;7.97;6.95;;;20.50;99.90;;;;;;5053343;28;20280;-86
2022/08/15 05:29:30;;;;;;;10.23;8.20;;;20.50;99.90;;;;;;5053517;28;20240;-86
2022/08/15 05:31:59;;;;;;;8.93;8.02;;;20.60;99.90;;;;;;5053487;28;20285;-87
2022/08/15 05:34:28;;;;;;;7.80;7.13;;;20.60;99.90;;;;;;5053103;28;20228;-86
2022/08/15 05:37:12;;;;;;;9.68;7.85;;;20.60;99.90;;;;;;5052973;28;20217;-87
2022/08/15 05:39:44;;;;;;;7.82;7.03;;;20.60;99.90;;;;;;5053181;28;20210;-86
2022/08/15 05:42:28;;;;;;;8.50;7.47;;;20.70;99.90;;;;;;5053106;28;20229;-87
2022/08/15 05:45:09;;;;;;;7.35;6.70;;;20.80;99.90;;;;;;5053477;28;20205;-86
2022/08/15 05:47:43;;;;;;;8.45;7.68;;;20.90;99.90;;;;;;5052951;28;20288;-86
2022/08/15 05:50:30;;;;;;;7.90;7.20;;;20.90;99.90;;;;;;5053013;28;20210;-87
2022/08/15 05:53:16;;;;;;;7.38;6.82;;;21.00;99.90;;;;;;5052963;28;20209;-87
2022/08/15 05:55:50;;;;;;;8.75;6.55;;;21.00;99.90;;;;;;5052977;28;20293;-87
2022/08/15 05:58:30;;;;;;;8.13;7.53;;;21.10;99.90;;;;;;5052924;28;20282;-86
2022/08/15 06:01:17;;;;;;;8.10;7.40;;;21.00;99.90;;;;;;5052938;28;20222;-86
2022/08/15 06:03:53;;;;;;;8.18;7.47;;;21.10;99.90;;;;;;5052592;28;20285;-87
2022/08/15 06:06:25;;;;;;;8.38;7.25;;;21.10;99.90;;;;;;5052855;28;20212;-86
2022/08/15 06:09:05;;;;;;;8.38;7.57;;;21.10;99.90;;;;;;5053014;28;20280;-86
2022/08/15 06:11:41;;;;;;;7.35;6.75;;;21.10;99.90;;;;;;5053044;28;20236;-86
2022/08/15 06:14:24;;;;;;;7.78;7.18;;;21.10;99.90;;;;;;5053266;28;20202;-86
2022/08/15 06:17:10;;;;;;;7.57;6.97;;;21.10;99.90;;;;;;5052719;28;20205;-86
2022/08/15 06:19:44;;;;;;;8.65;7.80;;;21.10;99.90;;;;;;5052582;28;20247;-87
2022/08/15 06:22:33;;;;;;;8.90;8.00;;;21.20;99.90;;;;;;5052449;28;20363;-86
2022/08/15 06:25:21;;;;;;;7.32;6.75;;;21.20;99.90;;;;;;5052884;28;20205;-86
2022/08/15 06:28:09;;;;;;;7.40;6.80;;;21.20;99.90;;;;;;5052586;28;20210;-87
2022/08/15 06:31:04;;;;;;;8.10;7.40;;;21.30;99.90;;;;;;5052600;28;20233;-85
2022/08/15 06:33:41;;;;;;;8.27;7.47;;;21.40;99.90;;;;;;5052683;28;20271;-87
2022/08/15 06:36:30;;;;;;;8.95;8.05;;;21.50;99.90;;;;;;5052784;28;20210;-86
2022/08/15 06:39:04;;;;;;;7.93;7.22;;;21.50;99.90;;;;;;5052267;28;20207;-87
2022/08/15 06:41:43;;;;;;;9.23;8.32;;;21.60;99.90;;;;;;5052705;28;20225;-87
2022/08/15 06:44:19;;;;;;;9.15;8.35;;;21.70;99.90;;;;;;5052240;28;20232;-87
2022/08/15 06:46:52;;;;;;;8.77;7.93;;;21.80;99.90;;;;;;5052078;28;20210;-87
2022/08/15 06:49:24;;;;;;;7.28;6.68;;;21.90;99.90;;;;;;5056121;28;20266;-87
2022/08/15 06:52:03;;;;;;;9.10;8.23;;;21.90;99.90;;;;;;5069373;28;20248;-87
2022/08/15 06:54:43;;;;;;;12.13;8.48;;;22.10;99.90;;;;;;5069680;28;20202;-87
2022/08/15 06:57:21;;;;;;;8.23;7.55;;;22.10;99.90;;;;;;5063535;28;20281;-86
2022/08/15 07:00:00;;;;;;;7.60;6.90;;;22.30;99.90;;;;;;5056486;28;20232;-87
2022/08/15 07:02:46;;;;;;;7.03;6.53;;;22.30;99.90;;;;;;5056040;28;20238;-87
2022/08/15 07:05:23;;;;;;;7.72;7.07;;;22.40;99.90;;;;;;5056196;28;20205;-87
2022/08/15 07:08:04;;;;;;;7.22;6.63;;;22.50;99.90;;;;;;5056365;28;20216;-87
2022/08/15 07:10:42;;;;;;;9.00;8.10;;;22.60;99.90;;;;;;5056132;28;20302;-86
2022/08/15 07:13:20;;;;;;;7.70;6.80;;;22.80;99.90;;;;;;5056082;28;20281;-86
2022/08/15 07:15:55;;;;;;;8.25;7.53;;;23.10;99.90;;;;;;5055810;28;20231;-87
2022/08/15 07:18:33;;;;;;;7.88;7.13;;;23.20;99.90;;;;;;5056176;28;20206;-87
2022/08/15 07:21:04;;;;;;;7.75;7.05;;;23.40;99.90;;;;;;5056097;28;20305;-86
2022/08/15 07:24:05;;;;;;;7.40;6.75;;;23.60;99.90;;;;;;5055886;28;20221;-86
2022/08/15 07:26:59;;;;;;;8.77;7.93;;;23.80;99.90;;;;;;5055888;28;20202;-87
2022/08/15 07:29:42;;;;;;;7.35;6.72;;;24.10;99.90;;;;;;5055437;28;20270;-87
2022/08/15 07:32:27;;;;;;;7.82;7.13;;;24.30;99.90;;;;;;5055531;28;20233;-86
2022/08/15 07:35:21;;;;;;;7.85;6.97;;;24.60;99.90;;;;;;5056246;28;20203;-86
2022/08/15 07:37:56;;;;;;;5.65;5.18;;;24.70;99.90;;;;;;5055767;28;20213;-86
2022/08/15 07:40:31;;;;;;;7.70;7.00;;;24.80;99.90;;;;;;5055371;28;20236;-85
2022/08/15 07:43:25;;;;;;;7.45;6.82;;;24.90;99.90;;;;;;5055126;28;20228;-86
2022/08/15 07:46:10;;;;;;;6.57;5.30;;;25.10;99.90;;;;;;5055550;28;20234;-86
2022/08/15 07:48:58;;;;;;;6.93;6.32;;;25.30;99.90;;;;;;5055070;28;20210;-86
2022/08/15 07:51:30;;;;;;;7.18;6.57;;;25.70;99.90;;;;;;5055566;28;20240;-85
2022/08/15 07:54:02;;;;;;;6.38;5.88;;;26.30;99.90;;;;;;5055409;28;20277;-86
2022/08/15 07:56:34;;;;;;;6.15;5.57;;;26.90;99.90;;;;;;5055596;28;20216;-85
2022/08/15 07:59:22;;;;;;;5.18;4.78;;;27.60;99.90;;;;;;5054630;28;20293;-86
2022/08/15 08:02:02;;;;;;;8.20;5.55;;;28.20;99.90;;;;;;5055375;28;20304;-86
2022/08/15 08:04:35;;;;;;;5.90;5.25;;;28.80;99.90;;;;;;5055373;28;20235;-86
2022/08/15 08:07:19;;;;;;;5.82;5.32;;;29.20;99.90;;;;;;5054902;28;20209;-86
2022/08/15 08:10:04;;;;;;;5.32;4.88;;;29.20;99.90;;;;;;5054797;28;20209;-86
2022/08/15 08:13:06;;;;;;;7.03;5.30;;;29.50;99.90;;;;;;5054988;28;20204;-86
2022/08/15 08:15:56;;;;;;;5.10;4.60;;;30.00;99.90;;;;;;5054788;28;20217;-86
2022/08/15 08:18:48;;;;;;;4.47;4.18;;;29.90;99.90;;;;;;5054979;28;20248;-86
2022/08/15 08:21:18;;;;;;;8.10;4.70;;;29.90;99.90;;;;;;5054879;28;20300;-86
2022/08/15 08:24:02;;;;;;;4.90;4.50;;;29.60;99.90;;;;;;5054891;28;20221;-86
2022/08/15 08:26:36;;;;;;;4.95;4.63;;;29.40;99.90;;;;;;5054623;28;20205;-87
2022/08/15 08:29:12;;;;;;;5.13;4.72;;;29.50;99.90;;;;;;5054918;28;20212;-86
2022/08/15 08:31:53;;;;;;;5.45;5.00;;;29.60;99.90;;;;;;5055118;28;20243;-86
2022/08/15 08:34:33;;;;;;;5.38;4.93;;;29.70;99.90;;;;;;5055019;28;20228;-86
2022/08/15 08:37:24;;;;;;;5.10;4.70;;;30.00;99.90;;;;;;5054732;28;20205;-86
2022/08/15 08:41:24;;;;;;;5.72;5.22;;;30.40;99.90;;;;;;5054784;28;20205;-86
2022/08/15 08:42:59;;;;;;;4.95;4.63;;;31.00;99.90;;;;;;5055129;28;20284;-86
2022/08/15 08:45:36;;;;;;;4.85;4.40;;;31.30;99.90;;;;;;5054322;28;20197;-86
2022/08/15 08:48:18;;;;;;;6.47;5.60;;;31.60;99.40;;;;;;5054554;28;20204;-86
2022/08/15 08:51:02;;;;;;;4.43;4.13;;;32.40;97.90;;;;;;5054542;28;20313;-86
2022/08/15 08:53:44;;;;;;;4.97;4.47;;;32.30;97.20;;;;;;5054491;28;20208;-86
2022/08/15 08:56:17;;;;;;;4.63;4.32;;;32.50;96.20;;;;;;5054218;28;20208;-85
2022/08/15 08:59:07;;;;;;;5.05;4.68;;;32.70;95.50;;;;;;5054893;28;20205;-86
2022/08/15 09:01:40;;;;;;;5.65;4.70;;;32.50;95.30;;;;;;5054349;28;20275;-86
2022/08/15 09:04:14;;;;;;;4.93;4.55;;;32.50;94.90;;;;;;5053991;28;20225;-86
2022/08/15 09:06:50;;;;;;;5.28;4.78;;;32.70;94.50;;;;;;5054207;28;20239;-85
2022/08/15 09:09:28;;;;;;;4.95;4.55;;;32.70;94.90;;;;;;5053659;28;20293;-86
2022/08/15 09:12:01;;;;;;;4.38;4.07;;;33.10;94.00;;;;;;5052981;28;20225;-86
2022/08/15 09:14:34;;;;;;;5.15;4.75;;;33.50;93.30;;;;;;5053976;28;20193;-86
2022/08/15 09:17:25;;;;;;;6.70;3.97;;;33.00;93.40;;;;;;5053857;28;20207;-86
2022/08/15 09:20:05;;;;;;;5.07;4.68;;;32.90;93.10;;;;;;5054204;28;20205;-86
2022/08/15 09:22:40;;;;;;;4.80;4.35;;;32.50;93.10;;;;;;5054164;28;20284;-86
2022/08/15 09:25:09;;;;;;;4.90;4.45;;;32.50;93.50;;;;;;5053454;28;20229;-87
2022/08/15 09:27:47;;;;;;;4.68;4.35;;;32.50;92.90;;;;;;5053414;28;20262;-86
2022/08/15 09:30:27;;;;;;;4.65;4.32;;;32.70;93.00;;;;;;5053139;28;20212;-86
2022/08/15 09:33:30;;;;;;;7.97;4.43;;;33.20;93.20;;;;;;5053428;28;20204;-86
2022/08/15 09:36:20;;;;;;;4.85;4.45;;;33.60;92.00;;;;;;5054276;28;20201;-86
2022/08/15 09:39:03;;;;;;;3.95;3.72;;;;;;;;;;5054338;28;20237;-89
2022/08/15 09:41:42;;;;;;;4.00;3.75;;;34.40;91.40;;;;;;5053870;28;20258;-86
2022/08/15 09:44:40;;;;;;;5.90;3.60;;;34.60;89.00;;;;;;5053193;28;20229;-86
2022/08/15 09:47:33;;;;;;;4.30;4.00;;;34.70;88.20;;;;;;5052996;28;20211;-86
2022/08/15 09:50:41;;;;;;;4.38;4.05;;;35.00;87.50;;;;;;5052818;28;20212;-86
2022/08/15 09:53:24;;;;;;;5.55;4.38;;;35.30;88.20;;;;;;5053382;28;20208;-86
2022/08/15 09:56:01;;;;;;;5.93;4.85;;;35.50;85.40;;;;;;5053356;28;20203;-86
2022/08/15 09:58:37;;;;;;;3.95;3.65;;;35.60;84.30;;;;;;5052443;28;20207;-86
2022/08/15 10:01:15;;;;;;;4.10;3.80;;;35.20;83.10;;;;;;5053374;28;20233;-87
2022/08/15 10:03:53;;;;;;;7.05;4.03;;;35.20;83.20;;;;;;5053087;28;20201;-86
2022/08/15 10:06:24;;;;;;;4.57;4.18;;;35.10;82.70;;;;;;5053411;28;20204;-87
2022/08/15 10:09:23;;;;;;;4.28;3.97;;;35.30;84.70;;;;;;5053462;28;20234;-87
2022/08/15 10:12:06;;;;;;;4.35;4.05;;;35.10;82.80;;;;;;5052784;28;20236;-87
2022/08/15 10:14:43;;;;;;;4.40;4.10;;;35.00;82.10;;;;;;5052893;28;20197;-87
2022/08/15 10:17:27;;;;;;;4.78;4.28;;;35.00;81.80;;;;;;5053059;28;20209;-87
2022/08/15 10:19:56;;;;;;;3.50;3.25;;;35.10;82.60;;;;;;5053026;28;20209;-87
2022/08/15 10:22:51;;;;;;;4.35;4.05;;;35.60;81.00;;;;;;5052653;28;20205;-87
2022/08/15 10:25:28;;;;;;;4.50;4.10;;;36.20;78.90;;;;;;5052511;28;20235;-87
2022/08/15 10:28:05;;;;;;;3.88;3.58;;;36.50;77.10;;;;;;5053601;28;20226;-87
2022/08/15 10:31:21;;;;;;;3.53;3.33;;;36.70;77.60;;;;;;5062820;28;20246;-87
2022/08/15 10:34:19;;;;;;;4.97;4.57;;;37.00;77.10;;;;;;5072190;28;20291;-87
2022/08/15 10:37:20;;;;;;;5.07;3.80;;;36.90;75.60;;;;;;5052563;28;20279;-87
2022/08/15 10:40:07;;;;;;;3.85;3.55;;;36.90;76.30;;;;;;5052257;28;20204;-87
2022/08/15 10:42:50;;;;;;;3.67;3.42;;;36.80;73.20;;;;;;5052522;28;20223;-87
2022/08/15 10:45:28;;;;;;;4.40;4.00;;;36.40;75.10;;;;;;5052040;28;20232;-87
2022/08/15 10:48:09;;;;;;;4.45;3.95;;;36.40;72.50;;;;;;5052491;28;20201;-87
2022/08/15 10:50:53;;;;;;;3.80;3.50;;;36.40;72.10;;;;;;5052533;28;20296;-87
2022/08/15 10:53:39;;;;;;;3.60;3.33;;;36.70;71.10;;;;;;5052857;28;20205;-87
2022/08/15 10:56:22;;;;;;;4.18;3.65;;;37.00;71.30;;;;;;5052472;28;20209;-87
2022/08/15 10:59:15;;;;;;;3.72;3.42;;;37.30;70.60;;;;;;5052273;28;20201;-87
2022/08/15 11:01:47;;;;;;;3.80;3.53;;;37.10;69.10;;;;;;5052221;28;20229;-87
2022/08/15 11:04:26;;;;;;;3.90;3.60;;;36.30;70.10;;;;;;5052365;28;20282;-87
2022/08/15 11:07:19;;;;;;;4.28;3.97;;;36.20;70.90;;;;;;5052755;28;20292;-87
2022/08/15 11:09:54;;;;;;;4.03;3.72;;;35.90;71.50;;;;;;5053123;28;20270;-87
2022/08/15 11:12:25;;;;;;;4.20;3.90;;;35.50;70.60;;;;;;5053188;28;20232;-87
2022/08/15 11:14:56;;;;;;;4.90;3.78;;;35.40;70.80;;;;;;5052360;28;20236;-87
2022/08/15 11:17:29;;;;;;;3.55;3.28;;;35.40;70.70;;;;;;5052141;28;20206;-87
2022/08/15 11:20:19;;;;;;;7.28;4.65;;;35.70;71.80;;;;;;5051936;28;20263;-87
2022/08/15 11:22:54;;;;;;;3.72;3.42;;;36.00;69.90;;;;;;5052157;28;20209;-87
2022/08/15 11:25:27;;;;;;;4.90;4.47;;;35.60;69.80;;;;;;5051733;28;20228;-87
2022/08/15 11:28:03;;;;;;;4.20;3.80;;;35.20;69.70;;;;;;5051979;28;20239;-87
2022/08/15 11:31:00;;;;;;;3.85;3.40;;;35.20;69.80;;;;;;5051902;28;20247;-87
2022/08/15 11:33:41;;;;;;;5.28;3.88;;;35.20;69.80;;;;;;5052776;28;20212;-87
2022/08/15 11:36:12;;;;;;;4.00;3.63;;;35.50;69.10;;;;;;5055522;28;20280;-86
2022/08/15 11:38:47;;;;;;;4.47;4.07;;;35.90;68.90;;;;;;5055515;28;20228;-87
2022/08/15 11:41:41;;;;;;;3.85;3.55;;;36.80;67.50;;;;;;5055180;28;20221;-87
2022/08/15 11:44:22;;;;;;;4.15;3.78;;;37.20;66.50;;;;;;5055403;28;20215;-87
2022/08/15 11:46:51;;;;;;;4.43;4.00;;;36.90;66.10;;;;;;5054867;28;20221;-87
2022/08/15 11:49:31;;;;;;;4.40;4.00;;;36.50;66.20;;;;;;5055131;28;20292;-87
2022/08/15 11:52:08;;;;;;;5.70;3.95;;;36.60;66.50;;;;;;5054958;28;20225;-87
2022/08/15 11:55:14;;;;;;;5.05;4.53;;;37.00;67.50;;;;;;5055385;28;20197;-86
2022/08/15 11:57:57;;;;;;;4.20;3.90;;;37.60;65.00;;;;;;5055243;28;20231;-87
2022/08/15 12:00:29;;;;;;;4.10;3.80;;;37.50;63.90;;;;;;5055113;28;20221;-87
2022/08/15 12:02:58;;;;;;;3.88;3.58;;;37.30;64.40;;;;;;5055406;28;20236;-86
2022/08/15 12:05:49;;;;;;;3.95;3.65;;;36.90;64.10;;;;;;5055225;28;20235;-87
2022/08/15 12:08:37;;;;;;;3.63;3.38;;;36.70;64.80;;;;;;5055235;28;20237;-87
2022/08/15 12:11:18;;;;;;;3.60;3.40;;;36.90;64.70;;;;;;5055467;28;20237;-87
2022/08/15 12:13:56;;;;;;;3.83;3.55;;;37.00;63.50;;;;;;5055116;28;20287;-86
2022/08/15 12:16:28;;;;;;;4.22;3.92;;;37.20;63.00;;;;;;5055010;28;20197;-87
2022/08/15 12:18:58;;;;;;;3.95;3.65;;;37.70;62.70;;;;;;5054779;28;20205;-87
2022/08/15 12:21:47;;;;;;;3.90;3.60;;;37.60;62.20;;;;;;5055254;28;20307;-87
2022/08/15 12:24:37;;;;;;;4.13;3.72;;;37.50;63.70;;;;;;5055354;28;20209;-88
2022/08/15 12:27:15;;;;;;;3.88;3.58;;;37.60;62.90;;;;;;5054737;28;20232;-87
2022/08/15 12:29:45;;;;;;;3.00;2.80;;;37.60;62.30;;;;;;5054657;28;20267;-88
2022/08/15 12:32:19;;;;;;;3.63;3.33;;;37.30;61.70;;;;;;5054920;28;20297;-87
2022/08/15 12:35:06;;;;;;;3.55;3.25;;;37.70;61.70;;;;;;5055153;28;20209;-88
2022/08/15 12:37:56;;;;;;;4.50;4.10;;;37.60;61.70;;;;;;5054607;28;20209;-87
2022/08/15 12:40:26;;;;;;;3.50;3.20;;;37.40;61.10;;;;;;5054256;28;20217;-87
2022/08/15 12:43:14;;;;;;;3.28;3.05;;;37.60;60.40;;;;;;5054720;28;20212;-87
2022/08/15 12:45:45;;;;;;;6.15;3.65;;;37.60;61.90;;;;;;5053788;28;20311;-87
2022/08/15 12:48:22;;;;;;;5.40;3.80;;;37.70;59.90;;;;;;5054415;28;20209;-87
2022/08/15 12:51:04;;;;;;;3.90;3.60;;;37.60;60.60;;;;;;5054531;28;20304;-88
2022/08/15 12:53:38;;;;;;;3.22;3.03;;;36.90;60.70;;;;;;5054675;28;20214;-88
2022/08/15 12:56:08;;;;;;;6.82;4.10;;;36.50;61.20;;;;;;5054443;28;20205;-88
2022/08/15 12:58:57;;;;;;;4.07;3.75;;;36.20;63.00;;;;;;5054003;28;20212;-87
2022/08/15 13:01:32;;;;;;;6.05;3.28;;;35.70;62.00;;;;;;5054453;28;20256;-88
2022/08/15 13:04:20;;;;;;;4.68;4.20;;;35.60;62.30;;;;;;5054088;28;20211;-88
2022/08/15 13:07:09;;;;;;;3.90;3.58;;;35.40;62.60;;;;;;5053678;28;20220;-87
2022/08/15 13:09:44;;;;;;;3.08;2.88;;;35.40;62.80;;;;;;5054104;28;20205;-87
2022/08/15 13:12:12;;;;;;;2.72;2.53;;;35.60;60.90;;;;;;5054266;28;20237;-87
2022/08/15 13:14:46;;;;;;;3.28;3.08;;;35.70;60.30;;;;;;5053993;28;20240;-87
2022/08/15 13:17:16;;;;;;;3.42;3.22;;;35.90;62.20;;;;;;5054150;28;20209;-88
2022/08/15 13:25:39;;;;;;;11.05;2.58;;;35.40;61.30;;;;;;5053776;28;20295;-88
2022/08/15 13:28:14;;;;;;;3.03;2.83;;;35.20;61.70;;;;;;5053710;28;20215;-87
2022/08/15 13:30:42;;;;;;;2.83;2.63;;;35.20;60.90;;;;;;5053346;28;20307;-88
2022/08/15 13:33:31;;;;;;;3.63;2.92;;;35.20;60.90;;;;;;5053716;28;20217;-87
2022/08/15 13:36:02;;;;;;;2.90;2.58;;;34.70;60.30;;;;;;5053766;28;20244;-87
2022/08/15 13:38:32;;;;;;;2.75;2.55;;;34.20;60.90;;;;;;5053194;28;20205;-89
2022/08/15 13:41:02;;;;;;;2.97;2.10;;;34.20;60.70;;;;;;5053229;28;20229;-88
2022/08/15 13:43:33;;;;;;;2.92;2.63;;;34.40;60.70;;;;;;5053433;28;20215;-88
2022/08/15 13:46:25;;;;;;;2.67;2.50;;;34.60;61.80;;;;;;5053502;28;20224;-87
2022/08/15 13:48:58;;;;;;;3.55;3.00;;;34.60;60.80;;;;;;5052326;28;20212;-88
2022/08/15 13:51:42;;;;;;;3.58;3.28;;;34.60;60.90;;;;;;5053415;28;20221;-88
2022/08/15 13:54:30;;;;;;;2.90;2.70;;;34.70;61.60;;;;;;5053107;28;20231;-88
2022/08/15 13:57:19;;;;;;;3.22;2.95;;;34.90;61.50;;;;;;5052715;28;20327;-87